Time;durP1;ratioP1;P1;durP2;ratioP2;P2;SDS_P1;SDS_P2;PMS_P1;PMS_P2;Temp;Humidity;BMP_temperature;BMP_pressure;BME280_temperature;BME280_humidity;BME280_pressure;Samples;Min_cycle;Max_cycle;Signal;HPM_P1;HPM_P2
2021/09/24 00:00:09;;;;;;;25.67;13.00;;;15.10;99.90;;;;;;4866163;29;20204;-65
2021/09/24 00:02:37;;;;;;;23.90;12.33;;;15.20;99.90;;;;;;4874145;29;20202;-65
2021/09/24 00:05:06;;;;;;;21.87;12.33;;;15.20;99.90;;;;;;4871195;29;20701;-65
2021/09/24 00:07:35;;;;;;;27.47;12.60;;;15.20;99.90;;;;;;4874826;29;20207;-66
2021/09/24 00:10:04;;;;;;;34.20;13.37;;;15.30;99.90;;;;;;4875392;29;20214;-65
2021/09/24 00:12:32;;;;;;;26.43;13.93;;;15.30;99.90;;;;;;4881324;29;20203;-65
2021/09/24 00:15:03;;;;;;;24.33;13.50;;;15.30;99.90;;;;;;4873266;29;20358;-65
2021/09/24 00:17:31;;;;;;;30.27;12.63;;;15.30;99.90;;;;;;4871637;29;20210;-66
2021/09/24 00:20:00;;;;;;;28.77;13.73;;;15.40;99.90;;;;;;4865588;29;20533;-64
2021/09/24 00:22:28;;;;;;;26.27;15.10;;;15.40;99.90;;;;;;4870038;29;20238;-65
2021/09/24 00:24:56;;;;;;;30.13;14.03;;;15.40;99.90;;;;;;4875598;29;20198;-66
2021/09/24 00:27:25;;;;;;;25.67;12.60;;;15.40;99.90;;;;;;4856746;29;20200;-65
2021/09/24 00:29:53;;;;;;;22.37;13.20;;;15.40;99.90;;;;;;4877026;29;20552;-65
2021/09/24 00:32:23;;;;;;;32.97;14.00;;;15.50;99.90;;;;;;4876880;29;20245;-66
2021/09/24 00:34:52;;;;;;;34.60;14.60;;;15.50;99.90;;;;;;4869015;29;20203;-65
2021/09/24 00:37:21;;;;;;;27.67;14.47;;;15.50;99.90;;;;;;4875517;29;20675;-66
2021/09/24 00:39:49;;;;;;;33.97;15.40;;;15.50;99.90;;;;;;4877325;29;20222;-65
2021/09/24 00:42:18;;;;;;;28.73;15.00;;;15.50;99.90;;;;;;4879944;29;20238;-65
2021/09/24 00:44:49;;;;;;;28.90;15.10;;;15.60;99.90;;;;;;4858241;29;20210;-65
2021/09/24 00:47:19;;;;;;;27.53;14.80;;;15.50;99.90;;;;;;4875090;29;20603;-65
2021/09/24 00:49:52;;;;;;;27.20;14.27;;;15.50;99.90;;;;;;4858038;29;20209;-65
2021/09/24 00:52:21;;;;;;;33.40;14.57;;;15.60;99.90;;;;;;4875180;29;20203;-66
2021/09/24 00:54:52;;;;;;;31.87;15.07;;;15.60;99.90;;;;;;4872922;29;20263;-66
2021/09/24 00:57:21;;;;;;;26.80;14.43;;;15.60;99.90;;;;;;4872409;29;20234;-66
2021/09/24 00:59:49;;;;;;;30.10;14.50;;;15.60;99.90;;;;;;4874863;29;20253;-65
2021/09/24 01:02:19;;;;;;;28.33;15.07;;;15.60;99.90;;;;;;4867820;29;20207;-66
2021/09/24 01:04:49;;;;;;;26.03;14.80;;;15.70;99.90;;;;;;4857803;29;20213;-65
2021/09/24 01:07:19;;;;;;;25.77;14.67;;;15.70;99.90;;;;;;4872890;29;20710;-65
2021/09/24 01:09:48;;;;;;;27.80;14.80;;;15.70;99.90;;;;;;4873750;29;20388;-66
2021/09/24 01:12:16;;;;;;;26.90;14.17;;;15.70;99.90;;;;;;4878032;29;20227;-66
2021/09/24 01:14:44;;;;;;;31.23;15.53;;;15.70;99.90;;;;;;4857326;29;20233;-65
2021/09/24 01:17:13;;;;;;;33.70;15.53;;;15.70;99.90;;;;;;4875540;29;20226;-65
2021/09/24 01:19:41;;;;;;;28.73;15.60;;;15.70;99.90;;;;;;4871350;29;20219;-66
2021/09/24 01:22:11;;;;;;;32.43;17.33;;;15.70;99.90;;;;;;4854717;29;20303;-65
2021/09/24 01:24:39;;;;;;;31.10;16.40;;;15.70;99.90;;;;;;4855556;29;20207;-66
2021/09/24 01:27:08;;;;;;;26.57;15.37;;;15.70;99.90;;;;;;4873047;29;20609;-65
2021/09/24 01:29:37;;;;;;;26.47;15.33;;;15.80;99.90;;;;;;4872704;29;20306;-65
2021/09/24 01:32:06;;;;;;;32.10;15.37;;;15.80;99.90;;;;;;4865327;29;20202;-66
2021/09/24 01:34:35;;;;;;;31.73;16.50;;;15.80;99.90;;;;;;4873831;29;20924;-65
2021/09/24 01:37:04;;;;;;;31.77;15.67;;;15.80;99.90;;;;;;4875361;29;20206;-65
2021/09/24 01:39:34;;;;;;;27.10;13.30;;;15.80;99.90;;;;;;4875122;29;20701;-65
2021/09/24 01:42:02;;;;;;;26.87;13.87;;;15.80;99.90;;;;;;4872002;29;20241;-66
2021/09/24 01:44:30;;;;;;;31.30;15.47;;;15.90;99.90;;;;;;4873013;29;20198;-65
2021/09/24 01:46:59;;;;;;;30.90;14.73;;;15.80;99.90;;;;;;4875204;29;20286;-66
2021/09/24 01:49:27;;;;;;;25.67;13.93;;;15.80;99.90;;;;;;4872655;29;20286;-65
2021/09/24 01:51:56;;;;;;;25.77;14.03;;;15.90;99.90;;;;;;4873068;29;20293;-64
2021/09/24 01:54:24;;;;;;;30.97;15.50;;;15.90;99.90;;;;;;4873601;29;20298;-65
2021/09/24 01:56:54;;;;;;;29.40;14.10;;;15.90;99.90;;;;;;4874594;29;20637;-65
2021/09/24 01:59:23;;;;;;;28.67;14.90;;;15.90;99.90;;;;;;4871997;29;20215;-65
2021/09/24 02:01:51;;;;;;;28.37;14.60;;;15.90;99.90;;;;;;4869540;29;20567;-65
2021/09/24 02:04:20;;;;;;;26.23;14.23;;;15.90;99.90;;;;;;4872287;29;20706;-65
2021/09/24 02:06:49;;;;;;;33.70;15.67;;;15.90;99.90;;;;;;4868991;29;20283;-65
2021/09/24 02:09:18;;;;;;;30.43;15.60;;;15.90;99.90;;;;;;4854969;29;20303;-65
2021/09/24 02:11:46;;;;;;;24.07;14.47;;;15.90;99.90;;;;;;4872811;29;20770;-65
2021/09/24 02:14:16;;;;;;;31.63;14.77;;;15.90;99.90;;;;;;4873834;29;20314;-65
2021/09/24 02:16:45;;;;;;;29.10;14.60;;;15.90;99.90;;;;;;4870387;29;20702;-65
2021/09/24 02:19:13;;;;;;;30.90;13.70;;;16.00;99.90;;;;;;4874376;29;20694;-65
2021/09/24 02:21:42;;;;;;;26.40;13.77;;;16.00;99.90;;;;;;4867733;29;20230;-65
2021/09/24 02:24:11;;;;;;;24.67;13.30;;;15.90;99.90;;;;;;4861384;29;20662;-65
2021/09/24 02:26:39;;;;;;;22.10;12.87;;;16.00;99.90;;;;;;4860103;29;20234;-65
2021/09/24 02:29:10;;;;;;;20.70;11.63;;;15.90;99.90;;;;;;4851214;29;20191;-65
2021/09/24 02:31:40;;;;;;;25.70;12.23;;;15.90;99.90;;;;;;4877179;29;20204;-66
2021/09/24 02:34:10;;;;;;;25.87;11.90;;;15.90;99.90;;;;;;4874923;29;20249;-66
2021/09/24 02:36:39;;;;;;;24.03;11.50;;;15.90;99.90;;;;;;4868851;29;20203;-65
2021/09/24 02:39:08;;;;;;;29.77;12.03;;;15.80;99.90;;;;;;4869156;29;20302;-65
2021/09/24 02:41:37;;;;;;;26.17;11.43;;;15.80;99.90;;;;;;4867288;29;20289;-64
2021/09/24 02:44:05;;;;;;;20.53;11.33;;;15.90;99.90;;;;;;4870973;29;20294;-66
2021/09/24 02:46:34;;;;;;;27.57;10.93;;;15.90;99.90;;;;;;4872521;29;20202;-65
2021/09/24 02:49:04;;;;;;;26.77;11.17;;;15.90;99.90;;;;;;4872083;29;20211;-64
2021/09/24 02:51:33;;;;;;;20.13;10.27;;;15.90;99.90;;;;;;4870799;29;20203;-65
2021/09/24 02:54:02;;;;;;;28.07;11.40;;;15.80;99.90;;;;;;4855140;29;20267;-65
2021/09/24 02:56:30;;;;;;;25.10;10.83;;;15.80;99.90;;;;;;4854001;29;20294;-63
2021/09/24 02:58:58;;;;;;;19.20;10.77;;;15.80;99.90;;;;;;4872606;29;20287;-65
2021/09/24 03:01:27;;;;;;;21.10;10.63;;;15.90;99.90;;;;;;4869966;29;20211;-65
2021/09/24 03:03:56;;;;;;;23.60;10.87;;;15.90;99.90;;;;;;4862048;29;20206;-65
2021/09/24 03:06:26;;;;;;;25.93;11.63;;;15.90;99.90;;;;;;4868167;29;20198;-65
2021/09/24 03:09:02;;;;;;;19.87;10.77;;;15.90;99.90;;;;;;4842182;29;20202;-65
2021/09/24 03:12:02;;;;;;;23.10;10.67;;;15.90;99.90;;;;;;4856541;29;20207;-66
2021/09/24 03:14:31;;;;;;;24.17;11.83;;;15.90;99.90;;;;;;4855961;29;20597;-64
2021/09/24 03:17:00;;;;;;;22.97;12.13;;;15.90;99.90;;;;;;4875583;29;20685;-65
2021/09/24 03:19:28;;;;;;;21.57;10.53;;;15.90;99.90;;;;;;4870111;29;20274;-65
2021/09/24 03:21:58;;;;;;;21.37;11.03;;;15.90;99.90;;;;;;4875952;29;20544;-65
2021/09/24 03:24:26;;;;;;;21.97;11.47;;;15.90;99.90;;;;;;4852815;29;20198;-65
2021/09/24 03:26:54;;;;;;;17.33;10.53;;;15.90;99.90;;;;;;4871122;29;20696;-65
2021/09/24 03:29:23;;;;;;;17.13;11.23;;;15.90;99.90;;;;;;4876913;29;20615;-65
2021/09/24 03:31:51;;;;;;;18.90;10.70;;;15.90;99.90;;;;;;4861845;29;20744;-65
2021/09/24 03:34:34;;;;;;;25.73;11.40;;;15.90;99.90;;;;;;4870607;29;20504;-65
2021/09/24 03:37:04;;;;;;;16.37;9.60;;;15.80;99.90;;;;;;4874398;29;20318;-65
2021/09/24 03:39:33;;;;;;;16.30;10.57;;;15.80;99.90;;;;;;4873853;29;20683;-64
2021/09/24 03:42:01;;;;;;;17.03;10.50;;;15.80;99.90;;;;;;4874924;29;20314;-65
2021/09/24 03:44:29;;;;;;;22.40;11.13;;;15.70;99.90;;;;;;4870637;29;20248;-65
2021/09/24 03:46:58;;;;;;;20.77;12.13;;;15.70;99.90;;;;;;4873503;29;20297;-65
2021/09/24 03:49:26;;;;;;;17.03;11.00;;;15.60;99.90;;;;;;4880346;29;20207;-65
2021/09/24 03:51:55;;;;;;;17.17;10.83;;;15.60;99.90;;;;;;4874157;29;20730;-65
2021/09/24 03:54:25;;;;;;;19.30;10.30;;;15.60;99.90;;;;;;4859839;29;20244;-65
2021/09/24 03:56:53;;;;;;;24.53;10.97;;;15.50;99.90;;;;;;4859393;29;20513;-65
2021/09/24 03:59:22;;;;;;;19.00;11.10;;;15.60;99.90;;;;;;4873221;29;20618;-65
2021/09/24 04:01:50;;;;;;;19.57;11.60;;;15.60;99.90;;;;;;4854705;29;20250;-65
2021/09/24 04:04:19;;;;;;;18.87;11.17;;;15.60;99.90;;;;;;4873550;29;20200;-65
2021/09/24 04:06:47;;;;;;;18.03;10.93;;;15.50;99.90;;;;;;4874230;29;20199;-65
2021/09/24 04:09:15;;;;;;;25.37;12.67;;;15.50;99.90;;;;;;4872835;29;20238;-65
2021/09/24 04:11:45;;;;;;;22.53;11.63;;;15.50;99.90;;;;;;4856629;29;20667;-65
2021/09/24 04:14:59;;;;;;;23.77;12.90;;;15.50;99.90;;;;;;4866130;29;20218;-65
2021/09/24 04:17:31;;;;;;;23.27;12.23;;;15.50;99.90;;;;;;4854848;29;20204;-64
2021/09/24 04:19:59;;;;;;;20.70;12.20;;;15.50;99.90;;;;;;4858140;29;20297;-65
2021/09/24 04:22:28;;;;;;;20.60;11.27;;;15.60;99.90;;;;;;4874162;29;20195;-65
2021/09/24 04:24:56;;;;;;;20.23;12.50;;;15.60;99.90;;;;;;4875831;29;20246;-65
2021/09/24 04:27:26;;;;;;;25.27;12.37;;;15.60;99.90;;;;;;4879902;29;20248;-65
2021/09/24 04:29:54;;;;;;;17.67;12.03;;;15.60;99.90;;;;;;4857108;29;20290;-65
2021/09/24 04:32:23;;;;;;;25.10;12.63;;;15.60;99.90;;;;;;4854865;29;20579;-65
2021/09/24 04:34:54;;;;;;;24.60;12.83;;;15.60;99.90;;;;;;4873326;29;20198;-65
2021/09/24 04:37:22;;;;;;;20.80;11.83;;;15.60;99.90;;;;;;4877423;29;20200;-65
2021/09/24 04:39:50;;;;;;;25.00;12.23;;;15.60;99.90;;;;;;4871636;29;20640;-64
2021/09/24 04:42:19;;;;;;;26.20;12.57;;;15.70;99.90;;;;;;4873346;29;20725;-65
2021/09/24 04:44:49;;;;;;;23.67;12.43;;;15.60;99.90;;;;;;4873030;29;20297;-65
2021/09/24 04:47:18;;;;;;;25.93;12.87;;;15.60;99.90;;;;;;4873165;29;20309;-65
2021/09/24 04:49:47;;;;;;;24.50;12.40;;;15.60;99.90;;;;;;4854936;29;20822;-65
2021/09/24 04:52:15;;;;;;;21.67;12.90;;;15.60;99.90;;;;;;4856310;29;20229;-65
2021/09/24 04:54:43;;;;;;;22.37;14.00;;;15.60;99.90;;;;;;4841304;29;20223;-65
2021/09/24 04:57:12;;;;;;;22.13;13.43;;;15.60;99.90;;;;;;4861216;29;20201;-65
2021/09/24 04:59:40;;;;;;;25.60;13.37;;;15.60;99.90;;;;;;4872285;29;20262;-65
2021/09/24 05:02:10;;;;;;;28.23;14.13;;;15.60;99.90;;;;;;4871538;29;20214;-65
2021/09/24 05:04:38;;;;;;;27.87;14.37;;;15.60;99.90;;;;;;4873228;29;20666;-65
2021/09/24 05:07:06;;;;;;;26.97;15.17;;;15.60;99.90;;;;;;4862626;29;20206;-65
2021/09/24 05:09:35;;;;;;;36.93;16.07;;;15.60;99.90;;;;;;4870434;29;20196;-65
2021/09/24 05:12:05;;;;;;;30.37;14.77;;;15.60;99.90;;;;;;4872717;29;20290;-65
2021/09/24 05:14:34;;;;;;;35.00;16.27;;;15.60;99.90;;;;;;4872560;29;20682;-65
2021/09/24 05:17:02;;;;;;;25.37;15.07;;;15.60;99.90;;;;;;4873986;29;20222;-65
2021/09/24 05:19:32;;;;;;;27.67;14.97;;;15.60;99.90;;;;;;4853111;29;20298;-65
2021/09/24 05:22:01;;;;;;;28.30;16.23;;;15.60;99.90;;;;;;4872711;29;20574;-65
2021/09/24 05:24:29;;;;;;;24.80;16.40;;;15.60;99.90;;;;;;4874405;29;20210;-65
2021/09/24 05:27:00;;;;;;;31.13;16.30;;;15.60;99.90;;;;;;4838877;29;20309;-65
2021/09/24 05:29:28;;;;;;;30.70;16.43;;;15.60;99.90;;;;;;4870212;29;20286;-65
2021/09/24 05:31:57;;;;;;;23.87;15.77;;;15.50;99.90;;;;;;4878975;29;20250;-65
2021/09/24 05:34:25;;;;;;;29.07;17.03;;;15.60;99.90;;;;;;4837219;29;20410;-65
2021/09/24 05:36:55;;;;;;;36.00;17.67;;;15.50;99.90;;;;;;4870130;29;20616;-65
2021/09/24 05:39:23;;;;;;;32.83;17.43;;;15.50;99.90;;;;;;4853641;29;20543;-65
2021/09/24 05:41:55;;;;;;;30.17;18.30;;;15.40;99.90;;;;;;4867877;29;20246;-65
2021/09/24 05:44:24;;;;;;;28.47;16.60;;;15.40;99.90;;;;;;4873765;29;20608;-65
2021/09/24 05:46:52;;;;;;;31.77;17.60;;;15.40;99.90;;;;;;4871172;29;20294;-65
2021/09/24 05:49:20;;;;;;;29.00;17.93;;;15.40;99.90;;;;;;4874970;29;20226;-65
2021/09/24 05:51:49;;;;;;;32.80;17.73;;;15.40;99.90;;;;;;4873846;29;20615;-65
2021/09/24 05:54:19;;;;;;;32.33;17.53;;;15.30;99.90;;;;;;4873988;29;20198;-65
2021/09/24 05:56:48;;;;;;;31.10;16.80;;;15.40;99.90;;;;;;4864541;29;20258;-65
2021/09/24 05:59:16;;;;;;;24.27;15.80;;;15.40;99.90;;;;;;4866890;29;20384;-65
2021/09/24 06:01:48;;;;;;;25.97;16.90;;;15.40;99.90;;;;;;4873185;29;20222;-65
2021/09/24 06:04:20;;;;;;;34.70;17.37;;;15.40;99.90;;;;;;4864043;29;20535;-65
2021/09/24 06:06:48;;;;;;;29.40;15.93;;;15.40;99.90;;;;;;4863301;29;20233;-65
2021/09/24 06:09:18;;;;;;;27.83;16.93;;;15.50;99.90;;;;;;4873696;29;20255;-65
2021/09/24 06:11:47;;;;;;;28.03;16.63;;;15.50;99.90;;;;;;4873292;29;20840;-65
2021/09/24 06:14:15;;;;;;;27.77;16.27;;;15.50;99.90;;;;;;4859955;29;20671;-65
2021/09/24 06:16:43;;;;;;;28.07;16.47;;;15.50;99.90;;;;;;4873561;29;20222;-65
2021/09/24 06:19:12;;;;;;;36.27;17.93;;;15.50;99.90;;;;;;4886920;29;20253;-65
2021/09/24 06:21:41;;;;;;;25.60;16.23;;;15.60;99.90;;;;;;4860327;29;20220;-65
2021/09/24 06:24:12;;;;;;;28.63;16.47;;;15.60;99.90;;;;;;4873682;29;20716;-65
2021/09/24 06:26:42;;;;;;;27.10;15.77;;;15.60;99.90;;;;;;4881991;29;20211;-65
2021/09/24 06:29:10;;;;;;;25.23;15.27;;;15.60;99.90;;;;;;4882753;29;20203;-65
2021/09/24 06:31:38;;;;;;;31.53;16.17;;;15.70;99.90;;;;;;4875711;29;21235;-65
2021/09/24 06:34:07;;;;;;;31.83;16.13;;;15.70;99.90;;;;;;4867021;29;20266;-65
2021/09/24 06:36:36;;;;;;;31.03;16.30;;;15.70;99.90;;;;;;4875309;29;20266;-65
2021/09/24 06:39:04;;;;;;;31.93;17.07;;;15.70;99.90;;;;;;4867050;29;20230;-65
2021/09/24 06:41:32;;;;;;;28.77;16.43;;;15.80;99.90;;;;;;4853949;29;20306;-65
2021/09/24 06:44:02;;;;;;;26.63;14.93;;;15.80;99.90;;;;;;4853610;29;20207;-65
2021/09/24 06:46:36;;;;;;;28.53;15.20;;;15.90;99.90;;;;;;4873662;29;20210;-65
2021/09/24 06:49:05;;;;;;;31.97;15.20;;;16.00;99.90;;;;;;4872825;29;20229;-65
2021/09/24 06:51:33;;;;;;;26.20;14.93;;;16.10;99.90;;;;;;4871566;29;20254;-65
2021/09/24 06:54:03;;;;;;;23.93;14.63;;;16.10;99.90;;;;;;4873290;29;20717;-65
2021/09/24 06:56:31;;;;;;;19.97;14.07;;;16.20;99.90;;;;;;4876189;29;20234;-65
2021/09/24 06:59:00;;;;;;;30.30;15.10;;;16.10;99.90;;;;;;4855276;29;20243;-65
2021/09/24 07:01:30;;;;;;;27.83;14.83;;;16.20;99.90;;;;;;4872627;29;20269;-65
2021/09/24 07:03:59;;;;;;;28.03;14.43;;;16.20;99.90;;;;;;4871676;29;20199;-65
2021/09/24 07:06:28;;;;;;;30.83;15.67;;;16.30;99.90;;;;;;4870032;29;20341;-65
2021/09/24 07:08:56;;;;;;;30.73;15.97;;;16.30;99.90;;;;;;4865763;29;20319;-65
2021/09/24 07:11:25;;;;;;;29.27;15.67;;;16.40;99.90;;;;;;4868228;29;20452;-65
2021/09/24 07:13:53;;;;;;;29.13;15.87;;;16.40;99.90;;;;;;4874932;29;20195;-65
2021/09/24 07:16:22;;;;;;;29.17;16.90;;;16.50;99.90;;;;;;4866030;29;20731;-65
2021/09/24 07:18:52;;;;;;;30.47;17.27;;;16.50;99.90;;;;;;4861477;29;20282;-65
2021/09/24 07:21:20;;;;;;;30.03;16.07;;;16.50;99.90;;;;;;4880653;29;20230;-65
2021/09/24 07:23:48;;;;;;;36.33;17.60;;;16.50;99.90;;;;;;4878155;29;20628;-65
2021/09/24 07:26:17;;;;;;;26.50;16.87;;;16.50;99.90;;;;;;4880902;29;20234;-65
2021/09/24 07:28:45;;;;;;;37.00;18.07;;;16.50;99.90;;;;;;4881364;29;20217;-64
2021/09/24 07:31:14;;;;;;;33.20;17.43;;;16.60;99.90;;;;;;4865758;29;20245;-65
2021/09/24 07:33:43;;;;;;;31.97;17.30;;;16.80;99.90;;;;;;4878994;29;20617;-65
2021/09/24 07:36:12;;;;;;;29.10;16.93;;;16.80;99.90;;;;;;4879610;29;20679;-65
2021/09/24 07:38:41;;;;;;;32.47;17.37;;;17.10;99.90;;;;;;4880911;29;20216;-65
2021/09/24 07:41:09;;;;;;;33.30;17.27;;;17.20;99.90;;;;;;4878104;29;20239;-64
2021/09/24 07:43:37;;;;;;;33.43;18.33;;;17.20;99.90;;;;;;4878357;29;20243;-65
2021/09/24 07:46:06;;;;;;;33.30;17.40;;;17.20;99.90;;;;;;4876858;29;20203;-65
2021/09/24 07:48:34;;;;;;;24.07;15.87;;;17.30;99.90;;;;;;4878637;29;20298;-65
2021/09/24 07:51:03;;;;;;;28.90;16.87;;;17.30;99.90;;;;;;4861607;29;20305;-65
2021/09/24 07:53:33;;;;;;;33.23;17.37;;;17.40;99.90;;;;;;4877572;29;20728;-65
2021/09/24 07:56:02;;;;;;;28.17;16.70;;;17.60;99.90;;;;;;4877386;29;20219;-65
2021/09/24 07:58:30;;;;;;;30.23;16.20;;;17.60;99.90;;;;;;4864211;29;20270;-65
2021/09/24 08:00:58;;;;;;;36.20;15.43;;;17.60;99.90;;;;;;4875339;29;20719;-65
2021/09/24 08:03:27;;;;;;;25.77;15.67;;;17.80;99.90;;;;;;4867498;29;20643;-65
2021/09/24 08:05:55;;;;;;;28.43;15.53;;;17.90;99.90;;;;;;4876088;29;20559;-65
2021/09/24 08:08:24;;;;;;;27.63;15.30;;;17.90;99.90;;;;;;4874572;29;20215;-66
2021/09/24 08:10:54;;;;;;;30.93;14.53;;;18.00;99.90;;;;;;4875981;29;20289;-66
2021/09/24 08:13:24;;;;;;;29.77;15.10;;;17.90;99.90;;;;;;4875753;29;20199;-65
2021/09/24 08:15:54;;;;;;;28.23;14.90;;;17.90;99.90;;;;;;4878941;29;20226;-65
2021/09/24 08:18:23;;;;;;;22.23;13.50;;;17.90;99.90;;;;;;4878921;29;20218;-65
2021/09/24 08:20:53;;;;;;;20.37;12.67;;;18.00;99.90;;;;;;4876490;29;20199;-65
2021/09/24 08:23:22;;;;;;;21.73;13.13;;;18.00;99.90;;;;;;4877237;29;20479;-65
2021/09/24 08:25:50;;;;;;;23.40;12.57;;;18.00;99.90;;;;;;4877491;29;20964;-66
2021/09/24 08:28:20;;;;;;;18.03;12.30;;;18.20;99.90;;;;;;4873268;29;20294;-66
2021/09/24 08:30:49;;;;;;;20.77;12.07;;;18.30;99.90;;;;;;4873880;29;20297;-66
2021/09/24 08:33:17;;;;;;;24.33;11.80;;;18.30;99.90;;;;;;4874352;29;20211;-65
2021/09/24 08:35:46;;;;;;;19.30;10.60;;;18.40;99.90;;;;;;4873541;29;20240;-65
2021/09/24 08:38:14;;;;;;;25.83;11.37;;;18.50;99.90;;;;;;4860545;29;20263;-66
2021/09/24 08:40:43;;;;;;;15.17;10.67;;;18.50;99.90;;;;;;4868702;29;20209;-66
2021/09/24 08:43:13;;;;;;;18.37;10.60;;;18.50;99.90;;;;;;4857329;29;20829;-66
2021/09/24 08:45:47;;;;;;;24.73;11.20;;;18.50;99.90;;;;;;4874300;29;20747;-66
2021/09/24 08:48:16;;;;;;;16.83;10.40;;;18.60;99.90;;;;;;4872279;29;20689;-66
2021/09/24 08:50:46;;;;;;;15.13;9.33;;;18.70;99.90;;;;;;4880105;29;20444;-65
2021/09/24 08:53:16;;;;;;;14.97;9.47;;;18.80;99.90;;;;;;4867986;29;20678;-66
2021/09/24 08:55:45;;;;;;;14.80;9.37;;;18.90;99.90;;;;;;4861248;29;20746;-66
2021/09/24 08:58:14;;;;;;;20.60;9.30;;;19.00;99.90;;;;;;4874312;29;20243;-65
2021/09/24 09:00:44;;;;;;;21.30;8.63;;;19.10;99.90;;;;;;4876943;29;20285;-66
2021/09/24 09:03:15;;;;;;;17.03;8.47;;;19.20;99.90;;;;;;4857692;29;20301;-66
2021/09/24 09:05:47;;;;;;;13.33;8.37;;;19.30;99.90;;;;;;4872307;29;20210;-65
2021/09/24 09:08:18;;;;;;;10.50;7.47;;;19.40;99.90;;;;;;4875698;29;20285;-66
2021/09/24 09:10:52;;;;;;;10.70;7.13;;;19.50;99.90;;;;;;4875427;29;20259;-66
2021/09/24 09:13:22;;;;;;;12.30;6.87;;;19.60;99.90;;;;;;4874552;29;20196;-66
2021/09/24 09:16:00;;;;;;;10.63;6.10;;;19.60;99.90;;;;;;4855799;29;20235;-65
2021/09/24 09:18:31;;;;;;;15.60;7.20;;;19.40;99.90;;;;;;4858070;29;20455;-65
2021/09/24 09:21:01;;;;;;;11.67;7.17;;;19.50;99.90;;;;;;4876265;29;20202;-65
2021/09/24 09:23:31;;;;;;;9.63;6.60;;;19.60;99.90;;;;;;4876649;29;20254;-66
2021/09/24 09:26:00;;;;;;;9.03;5.50;;;19.60;99.90;;;;;;4881379;29;20199;-66
2021/09/24 09:28:35;;;;;;;10.77;5.93;;;19.60;99.90;;;;;;4880789;29;20191;-66
2021/09/24 09:31:18;;;;;;;10.27;6.13;;;19.60;99.90;;;;;;4875302;29;20254;-66
2021/09/24 09:33:47;;;;;;;10.97;6.30;;;19.70;99.90;;;;;;4875236;29;20718;-65
2021/09/24 09:36:23;;;;;;;8.60;5.90;;;19.70;99.90;;;;;;4882446;29;20211;-66
2021/09/24 09:38:52;;;;;;;7.93;4.97;;;19.80;99.90;;;;;;4879740;29;20239;-65
2021/09/24 09:41:22;;;;;;;9.20;5.63;;;19.80;99.90;;;;;;4869074;29;20576;-65
2021/09/24 09:43:53;;;;;;;9.83;5.23;;;19.70;99.90;;;;;;4878830;29;20253;-66
2021/09/24 09:46:25;;;;;;;12.33;5.57;;;19.60;99.90;;;;;;4880941;29;20282;-65
2021/09/24 09:49:07;;;;;;;11.93;5.63;;;19.80;99.90;;;;;;4875353;29;20213;-65
2021/09/24 09:51:37;;;;;;;8.60;4.83;;;20.10;99.90;;;;;;4876291;29;20289;-66
2021/09/24 09:54:07;;;;;;;11.80;5.50;;;20.30;99.90;;;;;;4858080;29;20258;-66
2021/09/24 09:56:37;;;;;;;7.67;4.90;;;20.30;99.90;;;;;;4874355;29;20241;-65
2021/09/24 09:59:25;;;;;;;8.90;4.70;;;20.10;99.90;;;;;;4859473;29;20674;-66
2021/09/24 10:04:51;;;;;;;6.13;5.20;;;20.30;99.90;;;;;;5084025;27;20637;-65
2021/09/24 10:07:21;;;;;;;8.43;5.33;;;21.10;99.90;;;;;;5071246;28;20241;-65
2021/09/24 10:10:05;;;;;;;9.40;4.93;;;21.20;99.90;;;;;;5076368;28;20669;-65
2021/09/24 10:12:33;;;;;;;5.70;4.50;;;21.20;99.90;;;;;;5066116;28;20603;-65
2021/09/24 10:15:07;;;;;;;7.10;4.70;;;21.30;99.90;;;;;;5059091;28;20196;-65
2021/09/24 10:17:36;;;;;;;10.00;4.30;;;21.50;99.90;;;;;;5064982;28;20694;-65
2021/09/24 10:20:10;;;;;;;6.10;3.67;;;21.50;99.90;;;;;;5067332;28;20226;-65
2021/09/24 10:22:39;;;;;;;4.27;3.80;;;21.30;99.90;;;;;;5070413;28;20200;-65
2021/09/24 10:25:08;;;;;;;5.97;3.90;;;21.00;99.90;;;;;;5067337;28;20188;-65
2021/09/24 10:27:38;;;;;;;6.20;3.53;;;20.80;99.90;;;;;;5061318;28;20280;-65
2021/09/24 10:30:10;;;;;;;6.87;3.70;;;20.70;99.90;;;;;;5062120;28;20296;-65
2021/09/24 10:32:52;;;;;;;5.00;3.70;;;20.50;99.90;;;;;;5066594;28;20216;-65
2021/09/24 10:35:22;;;;;;;7.90;4.27;;;20.40;99.90;;;;;;5062181;28;20219;-64
2021/09/24 10:38:08;;;;;;;5.57;3.97;;;20.30;99.90;;;;;;5060784;28;20280;-65
2021/09/24 10:40:36;;;;;;;9.93;3.80;;;20.30;99.90;;;;;;5063666;28;20283;-65
2021/09/24 10:43:14;;;;;;;8.27;4.00;;;20.30;99.90;;;;;;5064030;28;20299;-65
2021/09/24 10:45:43;;;;;;;4.77;3.53;;;20.30;99.90;;;;;;5055054;28;20196;-65
2021/09/24 10:48:18;;;;;;;6.30;4.07;;;20.30;99.90;;;;;;5064411;28;20203;-65
2021/09/24 10:50:56;;;;;;;5.03;3.50;;;20.30;99.90;;;;;;5062570;28;20196;-65
2021/09/24 10:53:26;;;;;;;4.80;3.70;;;20.40;99.90;;;;;;5089788;28;20197;-65
2021/09/24 10:56:26;;;;;;;4.57;4.10;;;20.60;99.90;;;;;;5071231;28;20278;-65
2021/09/24 10:58:59;;;;;;;6.83;3.40;;;20.80;99.90;;;;;;5058149;28;20766;-65
2021/09/24 11:01:33;;;;;;;3.73;3.33;;;21.10;99.90;;;;;;5067734;28;20567;-64
2021/09/24 11:04:10;;;;;;;5.53;2.90;;;21.40;99.90;;;;;;5060558;28;20314;-65
2021/09/24 11:06:43;;;;;;;4.40;2.40;;;21.40;99.90;;;;;;5062932;28;20200;-65
2021/09/24 11:09:13;;;;;;;3.23;2.67;;;21.50;99.90;;;;;;5060807;28;20867;-65
2021/09/24 11:11:45;;;;;;;4.97;3.20;;;21.30;99.90;;;;;;5062065;28;20219;-65
2021/09/24 11:14:43;;;;;;;3.73;2.97;;;21.20;99.90;;;;;;5059237;28;20713;-65
2021/09/24 11:17:14;;;;;;;3.17;2.67;;;21.30;99.90;;;;;;5009831;28;20195;-65
2021/09/24 11:19:44;;;;;;;2.83;2.57;;;21.40;99.90;;;;;;5064755;28;20309;-65
2021/09/24 11:22:21;;;;;;;3.60;2.70;;;21.80;99.90;;;;;;5048416;28;20281;-65
2021/09/24 11:25:09;;;;;;;3.43;2.60;;;21.80;99.90;;;;;;5049366;28;20220;-65
2021/09/24 11:27:40;;;;;;;3.23;2.13;;;21.50;99.90;;;;;;5047132;28;20193;-66
2021/09/24 11:30:17;;;;;;;2.47;2.27;;;21.50;99.90;;;;;;5082346;28;20205;-65
2021/09/24 11:32:48;;;;;;;3.13;2.17;;;21.60;99.90;;;;;;5047304;28;20687;-65
2021/09/24 11:35:21;;;;;;;2.47;2.37;;;21.50;99.90;;;;;;5046375;28;20659;-65
2021/09/24 11:37:50;;;;;;;7.90;2.13;;;21.60;99.90;;;;;;5044956;28;20247;-65
2021/09/24 11:40:21;;;;;;;4.43;2.00;;;21.80;99.90;;;;;;5052534;28;20247;-65
2021/09/24 11:42:52;;;;;;;2.20;2.10;;;21.80;99.90;;;;;;5047930;28;20288;-66
2021/09/24 11:45:23;;;;;;;2.47;2.27;;;21.70;99.90;;;;;;5046834;28;20290;-66
2021/09/24 11:47:58;;;;;;;2.50;2.30;;;21.50;99.90;;;;;;5043868;28;20239;-65
2021/09/24 11:50:30;;;;;;;3.87;2.03;;;21.80;99.90;;;;;;5048070;28;20194;-65
2021/09/24 11:53:02;;;;;;;2.33;2.17;;;22.20;99.90;;;;;;5047477;28;20203;-65
2021/09/24 11:55:32;;;;;;;4.63;2.00;;;22.40;99.90;;;;;;5035351;28;20631;-65
2021/09/24 11:58:04;;;;;;;1.80;1.70;;;22.40;99.90;;;;;;5049598;28;20238;-65
2021/09/24 12:00:36;;;;;;;2.10;1.80;;;22.40;99.90;;;;;;5049489;28;20216;-65
2021/09/24 12:03:17;;;;;;;2.77;1.90;;;22.60;99.90;;;;;;5048888;28;20228;-65
2021/09/24 12:05:56;;;;;;;2.33;1.83;;;22.70;99.90;;;;;;5044690;28;20195;-66
2021/09/24 12:08:27;;;;;;;2.53;2.17;;;22.90;99.90;;;;;;5047695;28;20189;-66
2021/09/24 12:10:58;;;;;;;2.73;1.90;;;23.00;99.90;;;;;;5042061;28;20718;-65
2021/09/24 12:13:39;;;;;;;3.07;1.90;;;23.10;99.90;;;;;;5045920;28;20202;-64
2021/09/24 12:16:10;;;;;;;2.17;2.07;;;22.80;99.90;;;;;;5038954;28;20193;-65
2021/09/24 12:18:53;;;;;;;2.60;2.10;;;22.40;99.90;;;;;;5047262;28;20193;-65
2021/09/24 12:21:25;;;;;;;3.53;2.20;;;22.30;99.90;;;;;;5047522;28;20205;-65
2021/09/24 12:23:55;;;;;;;4.47;2.27;;;22.20;99.90;;;;;;5049006;28;20216;-65
2021/09/24 12:26:32;;;;;;;1.97;1.87;;;22.20;99.90;;;;;;5044464;28;20279;-64
2021/09/24 12:29:06;;;;;;;2.30;1.80;;;22.30;99.90;;;;;;5036856;28;20276;-65
2021/09/24 12:31:41;;;;;;;1.70;1.60;;;22.30;99.90;;;;;;5041452;28;20590;-66
2021/09/24 12:34:13;;;;;;;1.40;1.30;;;22.40;99.90;;;;;;5047651;28;20550;-63
2021/09/24 12:36:56;;;;;;;1.33;1.33;;;22.60;99.90;;;;;;5044001;28;20189;-65
2021/09/24 12:39:28;;;;;;;1.60;1.50;;;22.80;99.90;;;;;;5044389;28;20246;-65
2021/09/24 12:41:59;;;;;;;1.80;1.40;;;22.60;99.90;;;;;;5048671;28;20219;-66
2021/09/24 12:44:27;;;;;;;1.37;1.20;;;22.80;99.90;;;;;;5046206;28;20240;-66
2021/09/24 12:46:58;;;;;;;6.10;1.20;;;22.90;99.90;;;;;;5046134;28;20291;-65
2021/09/24 12:49:29;;;;;;;1.20;0.83;;;22.90;99.90;;;;;;5046945;28;20203;-65
2021/09/24 12:51:58;;;;;;;1.50;0.87;;;22.70;99.90;;;;;;5046375;28;20206;-64